sensor_id;sensor_type;location;lat;lon;timestamp;P1;durP1;ratioP1;P2;durP2;ratioP2
30378;SDS011;17168;49.164;9.060;2024-01-15T00:01:57;33.47;;;11.30;;
30378;SDS011;17168;49.164;9.060;2024-01-15T00:04:36;27.98;;;8.38;;
30378;SDS011;17168;49.164;9.060;2024-01-15T00:07:09;27.45;;;9.52;;
30378;SDS011;17168;49.164;9.060;2024-01-15T00:09:43;29.95;;;9.60;;
30378;SDS011;17168;49.164;9.060;2024-01-15T00:12:17;23.35;;;8.02;;
30378;SDS011;17168;49.164;9.060;2024-01-15T00:14:52;29.70;;;8.45;;
30378;SDS011;17168;49.164;9.060;2024-01-15T00:17:25;29.30;;;9.93;;
30378;SDS011;17168;49.164;9.060;2024-01-15T00:19:57;32.72;;;10.13;;
30378;SDS011;17168;49.164;9.060;2024-01-15T00:22:35;32.70;;;10.63;;
30378;SDS011;17168;49.164;9.060;2024-01-15T00:25:08;38.38;;;11.73;;
30378;SDS011;17168;49.164;9.060;2024-01-15T00:27:42;33.88;;;10.68;;
30378;SDS011;17168;49.164;9.060;2024-01-15T00:30:17;32.42;;;11.43;;
30378;SDS011;17168;49.164;9.060;2024-01-15T00:32:50;32.03;;;11.10;;
30378;SDS011;17168;49.164;9.060;2024-01-15T00:35:25;35.00;;;11.82;;
30378;SDS011;17168;49.164;9.060;2024-01-15T00:37:57;28.55;;;10.07;;
30378;SDS011;17168;49.164;9.060;2024-01-15T00:40:31;31.15;;;11.13;;
30378;SDS011;17168;49.164;9.060;2024-01-15T00:43:03;32.95;;;11.85;;
30378;SDS011;17168;49.164;9.060;2024-01-15T00:45:41;29.15;;;10.75;;
30378;SDS011;17168;49.164;9.060;2024-01-15T00:48:13;34.67;;;10.82;;
30378;SDS011;17168;49.164;9.060;2024-01-15T00:50:48;36.55;;;13.95;;
30378;SDS011;17168;49.164;9.060;2024-01-15T00:53:23;30.35;;;10.82;;
30378;SDS011;17168;49.164;9.060;2024-01-15T00:55:55;38.38;;;12.70;;
30378;SDS011;17168;49.164;9.060;2024-01-15T00:58:28;31.73;;;11.95;;
30378;SDS011;17168;49.164;9.060;2024-01-15T01:01:03;36.47;;;11.77;;
30378;SDS011;17168;49.164;9.060;2024-01-15T01:03:36;36.05;;;13.23;;
30378;SDS011;17168;49.164;9.060;2024-01-15T01:06:08;28.63;;;11.55;;
30378;SDS011;17168;49.164;9.060;2024-01-15T01:08:41;26.48;;;9.70;;
30378;SDS011;17168;49.164;9.060;2024-01-15T01:11:13;29.67;;;10.35;;
30378;SDS011;17168;49.164;9.060;2024-01-15T01:13:48;32.75;;;10.00;;
30378;SDS011;17168;49.164;9.060;2024-01-15T01:16:24;27.65;;;12.52;;
30378;SDS011;17168;49.164;9.060;2024-01-15T01:18:56;40.80;;;14.30;;
30378;SDS011;17168;49.164;9.060;2024-01-15T01:21:29;33.00;;;11.20;;
30378;SDS011;17168;49.164;9.060;2024-01-15T01:24:13;29.33;;;10.88;;
30378;SDS011;17168;49.164;9.060;2024-01-15T01:27:21;26.98;;;10.15;;
30378;SDS011;17168;49.164;9.060;2024-01-15T01:29:55;33.58;;;9.98;;
30378;SDS011;17168;49.164;9.060;2024-01-15T01:32:33;27.77;;;10.52;;
30378;SDS011;17168;49.164;9.060;2024-01-15T01:35:09;34.47;;;12.55;;
30378;SDS011;17168;49.164;9.060;2024-01-15T01:37:45;33.10;;;11.88;;
30378;SDS011;17168;49.164;9.060;2024-01-15T01:40:17;26.02;;;8.52;;
30378;SDS011;17168;49.164;9.060;2024-01-15T01:42:52;28.10;;;10.57;;
30378;SDS011;17168;49.164;9.060;2024-01-15T01:45:24;22.58;;;8.13;;
30378;SDS011;17168;49.164;9.060;2024-01-15T01:48:01;24.63;;;8.90;;
30378;SDS011;17168;49.164;9.060;2024-01-15T01:50:36;24.42;;;9.63;;
30378;SDS011;17168;49.164;9.060;2024-01-15T01:53:11;23.92;;;8.82;;
30378;SDS011;17168;49.164;9.060;2024-01-15T01:55:51;20.52;;;8.80;;
30378;SDS011;17168;49.164;9.060;2024-01-15T01:58:26;25.45;;;7.78;;
30378;SDS011;17168;49.164;9.060;2024-01-15T02:01:04;23.85;;;9.40;;
30378;SDS011;17168;49.164;9.060;2024-01-15T02:03:44;27.50;;;10.25;;
30378;SDS011;17168;49.164;9.060;2024-01-15T02:06:18;25.48;;;9.70;;
30378;SDS011;17168;49.164;9.060;2024-01-15T02:09:06;33.53;;;13.13;;
30378;SDS011;17168;49.164;9.060;2024-01-15T02:11:53;27.33;;;10.65;;
30378;SDS011;17168;49.164;9.060;2024-01-15T02:14:25;20.77;;;7.03;;
30378;SDS011;17168;49.164;9.060;2024-01-15T02:17:52;25.50;;;9.23;;
30378;SDS011;17168;49.164;9.060;2024-01-15T02:20:55;24.13;;;8.65;;
30378;SDS011;17168;49.164;9.060;2024-01-15T02:23:30;23.33;;;8.15;;
30378;SDS011;17168;49.164;9.060;2024-01-15T02:26:08;24.42;;;10.13;;
30378;SDS011;17168;49.164;9.060;2024-01-15T02:28:56;27.98;;;8.98;;
30378;SDS011;17168;49.164;9.060;2024-01-15T02:31:28;25.05;;;8.75;;
30378;SDS011;17168;49.164;9.060;2024-01-15T02:34:24;25.13;;;8.02;;
30378;SDS011;17168;49.164;9.060;2024-01-15T02:37:30;28.15;;;10.68;;
30378;SDS011;17168;49.164;9.060;2024-01-15T02:40:19;24.92;;;8.70;;
30378;SDS011;17168;49.164;9.060;2024-01-15T02:42:55;25.90;;;8.93;;
30378;SDS011;17168;49.164;9.060;2024-01-15T02:45:30;27.38;;;9.40;;
30378;SDS011;17168;49.164;9.060;2024-01-15T02:48:09;24.85;;;10.00;;
30378;SDS011;17168;49.164;9.060;2024-01-15T02:50:44;24.35;;;8.50;;
30378;SDS011;17168;49.164;9.060;2024-01-15T02:53:20;24.73;;;8.65;;
30378;SDS011;17168;49.164;9.060;2024-01-15T02:55:55;25.05;;;8.48;;
30378;SDS011;17168;49.164;9.060;2024-01-15T02:58:28;24.65;;;8.80;;
30378;SDS011;17168;49.164;9.060;2024-01-15T03:01:00;24.98;;;8.43;;
30378;SDS011;17168;49.164;9.060;2024-01-15T03:03:37;28.17;;;8.52;;
30378;SDS011;17168;49.164;9.060;2024-01-15T03:06:12;21.40;;;9.30;;
30378;SDS011;17168;49.164;9.060;2024-01-15T03:08:44;20.13;;;7.20;;
30378;SDS011;17168;49.164;9.060;2024-01-15T03:11:25;22.80;;;7.47;;
30378;SDS011;17168;49.164;9.060;2024-01-15T03:14:02;21.55;;;7.88;;
30378;SDS011;17168;49.164;9.060;2024-01-15T03:16:39;26.55;;;9.05;;
30378;SDS011;17168;49.164;9.060;2024-01-15T03:22:09;23.83;;;8.35;;
30378;SDS011;17168;49.164;9.060;2024-01-15T03:24:41;21.73;;;7.50;;
30378;SDS011;17168;49.164;9.060;2024-01-15T03:27:17;22.02;;;9.32;;
30378;SDS011;17168;49.164;9.060;2024-01-15T03:29:52;22.30;;;8.98;;
30378;SDS011;17168;49.164;9.060;2024-01-15T03:32:39;27.27;;;10.13;;
30378;SDS011;17168;49.164;9.060;2024-01-15T03:36:11;26.02;;;9.35;;
30378;SDS011;17168;49.164;9.060;2024-01-15T03:38:34;24.63;;;8.63;;
30378;SDS011;17168;49.164;9.060;2024-01-15T03:41:12;24.17;;;9.07;;
30378;SDS011;17168;49.164;9.060;2024-01-15T03:43:47;25.83;;;8.52;;
30378;SDS011;17168;49.164;9.060;2024-01-15T03:46:19;32.03;;;11.52;;
30378;SDS011;17168;49.164;9.060;2024-01-15T03:48:52;25.08;;;9.93;;
30378;SDS011;17168;49.164;9.060;2024-01-15T03:51:24;25.75;;;9.77;;
30378;SDS011;17168;49.164;9.060;2024-01-15T03:53:57;27.30;;;10.07;;
30378;SDS011;17168;49.164;9.060;2024-01-15T03:56:32;24.35;;;10.05;;
30378;SDS011;17168;49.164;9.060;2024-01-15T03:59:10;27.20;;;9.65;;
30378;SDS011;17168;49.164;9.060;2024-01-15T04:01:48;29.27;;;10.32;;
30378;SDS011;17168;49.164;9.060;2024-01-15T04:04:23;28.67;;;9.10;;
30378;SDS011;17168;49.164;9.060;2024-01-15T04:06:55;27.30;;;9.88;;
30378;SDS011;17168;49.164;9.060;2024-01-15T04:09:28;26.73;;;9.98;;
30378;SDS011;17168;49.164;9.060;2024-01-15T04:12:05;30.05;;;11.07;;
30378;SDS011;17168;49.164;9.060;2024-01-15T04:14:40;26.30;;;9.77;;
30378;SDS011;17168;49.164;9.060;2024-01-15T04:19:45;22.77;;;7.85;;
30378;SDS011;17168;49.164;9.060;2024-01-15T04:21:04;19.98;;;8.07;;
30378;SDS011;17168;49.164;9.060;2024-01-15T04:24:08;24.85;;;9.45;;
30378;SDS011;17168;49.164;9.060;2024-01-15T04:27:22;21.42;;;7.25;;
30378;SDS011;17168;49.164;9.060;2024-01-15T04:29:58;24.85;;;9.00;;
30378;SDS011;17168;49.164;9.060;2024-01-15T04:36:17;22.65;;;8.65;;
30378;SDS011;17168;49.164;9.060;2024-01-15T04:39:29;25.85;;;8.63;;
30378;SDS011;17168;49.164;9.060;2024-01-15T04:42:20;22.50;;;8.15;;
30378;SDS011;17168;49.164;9.060;2024-01-15T04:45:24;15.88;;;7.63;;
30378;SDS011;17168;49.164;9.060;2024-01-15T04:48:19;28.67;;;10.75;;
30378;SDS011;17168;49.164;9.060;2024-01-15T04:51:20;29.25;;;11.45;;
30378;SDS011;17168;49.164;9.060;2024-01-15T04:53:57;24.27;;;8.23;;
30378;SDS011;17168;49.164;9.060;2024-01-15T04:56:32;24.83;;;9.18;;
30378;SDS011;17168;49.164;9.060;2024-01-15T04:59:13;20.98;;;8.82;;
30378;SDS011;17168;49.164;9.060;2024-01-15T05:05:04;23.58;;;8.68;;
30378;SDS011;17168;49.164;9.060;2024-01-15T05:07:39;24.83;;;8.25;;
30378;SDS011;17168;49.164;9.060;2024-01-15T05:10:14;25.52;;;9.90;;
30378;SDS011;17168;49.164;9.060;2024-01-15T05:12:47;18.90;;;6.47;;
30378;SDS011;17168;49.164;9.060;2024-01-15T05:15:19;28.92;;;9.90;;
30378;SDS011;17168;49.164;9.060;2024-01-15T05:17:51;21.40;;;8.23;;
30378;SDS011;17168;49.164;9.060;2024-01-15T05:20:39;24.50;;;9.55;;
30378;SDS011;17168;49.164;9.060;2024-01-15T05:23:11;26.77;;;10.07;;
30378;SDS011;17168;49.164;9.060;2024-01-15T05:25:44;25.75;;;9.52;;
30378;SDS011;17168;49.164;9.060;2024-01-15T05:28:27;21.33;;;8.25;;
30378;SDS011;17168;49.164;9.060;2024-01-15T05:30:59;25.67;;;9.68;;
30378;SDS011;17168;49.164;9.060;2024-01-15T05:37:09;23.20;;;9.77;;
30378;SDS011;17168;49.164;9.060;2024-01-15T05:39:41;20.02;;;7.47;;
30378;SDS011;17168;49.164;9.060;2024-01-15T05:42:14;16.33;;;8.00;;
30378;SDS011;17168;49.164;9.060;2024-01-15T05:44:46;15.15;;;6.85;;
30378;SDS011;17168;49.164;9.060;2024-01-15T05:47:18;16.33;;;7.38;;
30378;SDS011;17168;49.164;9.060;2024-01-15T05:49:51;23.05;;;8.60;;
30378;SDS011;17168;49.164;9.060;2024-01-15T05:52:26;19.75;;;7.85;;
30378;SDS011;17168;49.164;9.060;2024-01-15T05:54:58;21.90;;;7.68;;
30378;SDS011;17168;49.164;9.060;2024-01-15T05:57:31;20.65;;;7.93;;
30378;SDS011;17168;49.164;9.060;2024-01-15T06:00:05;24.17;;;9.52;;
30378;SDS011;17168;49.164;9.060;2024-01-15T06:02:40;23.65;;;9.73;;
30378;SDS011;17168;49.164;9.060;2024-01-15T06:05:21;23.75;;;10.68;;
30378;SDS011;17168;49.164;9.060;2024-01-15T06:07:56;29.30;;;10.50;;
30378;SDS011;17168;49.164;9.060;2024-01-15T06:10:29;22.52;;;8.60;;
30378;SDS011;17168;49.164;9.060;2024-01-15T06:13:18;25.70;;;9.70;;
30378;SDS011;17168;49.164;9.060;2024-01-15T06:15:59;16.67;;;7.60;;
30378;SDS011;17168;49.164;9.060;2024-01-15T06:18:33;23.10;;;10.15;;
30378;SDS011;17168;49.164;9.060;2024-01-15T06:21:08;24.63;;;9.95;;
30378;SDS011;17168;49.164;9.060;2024-01-15T06:27:19;24.25;;;9.30;;
30378;SDS011;17168;49.164;9.060;2024-01-15T06:33:14;22.85;;;9.90;;
30378;SDS011;17168;49.164;9.060;2024-01-15T06:35:49;23.40;;;9.98;;
30378;SDS011;17168;49.164;9.060;2024-01-15T06:38:38;20.13;;;8.77;;
30378;SDS011;17168;49.164;9.060;2024-01-15T06:41:17;22.50;;;8.98;;
30378;SDS011;17168;49.164;9.060;2024-01-15T06:43:49;22.95;;;8.95;;
30378;SDS011;17168;49.164;9.060;2024-01-15T06:46:22;21.70;;;8.13;;
30378;SDS011;17168;49.164;9.060;2024-01-15T06:48:54;21.35;;;8.10;;
30378;SDS011;17168;49.164;9.060;2024-01-15T06:51:27;21.48;;;7.28;;
30378;SDS011;17168;49.164;9.060;2024-01-15T06:53:59;23.75;;;9.60;;
30378;SDS011;17168;49.164;9.060;2024-01-15T06:56:34;25.67;;;10.55;;
30378;SDS011;17168;49.164;9.060;2024-01-15T06:59:06;23.92;;;9.43;;
30378;SDS011;17168;49.164;9.060;2024-01-15T07:01:39;28.05;;;8.90;;
30378;SDS011;17168;49.164;9.060;2024-01-15T07:11:50;20.27;;;7.85;;
30378;SDS011;17168;49.164;9.060;2024-01-15T07:14:46;18.38;;;6.47;;
30378;SDS011;17168;49.164;9.060;2024-01-15T07:17:28;20.83;;;8.38;;
30378;SDS011;17168;49.164;9.060;2024-01-15T07:20:16;28.17;;;10.52;;
30378;SDS011;17168;49.164;9.060;2024-01-15T07:22:54;26.05;;;9.55;;
30378;SDS011;17168;49.164;9.060;2024-01-15T07:25:29;22.30;;;8.48;;
30378;SDS011;17168;49.164;9.060;2024-01-15T07:28:05;21.15;;;8.30;;
30378;SDS011;17168;49.164;9.060;2024-01-15T07:30:44;24.20;;;8.73;;
30378;SDS011;17168;49.164;9.060;2024-01-15T07:33:21;20.67;;;8.00;;
30378;SDS011;17168;49.164;9.060;2024-01-15T07:35:53;21.70;;;8.43;;
30378;SDS011;17168;49.164;9.060;2024-01-15T07:38:26;21.63;;;8.90;;
30378;SDS011;17168;49.164;9.060;2024-01-15T07:40:59;24.52;;;9.40;;
30378;SDS011;17168;49.164;9.060;2024-01-15T07:43:36;27.40;;;9.48;;
30378;SDS011;17168;49.164;9.060;2024-01-15T07:46:13;19.42;;;8.95;;
30378;SDS011;17168;49.164;9.060;2024-01-15T07:48:45;22.10;;;10.23;;
30378;SDS011;17168;49.164;9.060;2024-01-15T07:51:18;26.15;;;10.88;;
30378;SDS011;17168;49.164;9.060;2024-01-15T07:53:53;22.58;;;9.68;;
30378;SDS011;17168;49.164;9.060;2024-01-15T07:56:27;26.15;;;11.73;;
30378;SDS011;17168;49.164;9.060;2024-01-15T07:59:02;25.90;;;10.32;;
30378;SDS011;17168;49.164;9.060;2024-01-15T08:01:37;26.98;;;11.68;;
30378;SDS011;17168;49.164;9.060;2024-01-15T08:04:19;26.23;;;10.73;;
30378;SDS011;17168;49.164;9.060;2024-01-15T08:06:52;23.92;;;9.35;;
30378;SDS011;17168;49.164;9.060;2024-01-15T08:09:25;24.52;;;9.80;;
30378;SDS011;17168;49.164;9.060;2024-01-15T08:12:00;25.42;;;10.93;;
30378;SDS011;17168;49.164;9.060;2024-01-15T08:14:36;21.52;;;10.50;;
30378;SDS011;17168;49.164;9.060;2024-01-15T08:17:11;23.08;;;10.15;;
30378;SDS011;17168;49.164;9.060;2024-01-15T08:19:44;24.25;;;10.93;;
30378;SDS011;17168;49.164;9.060;2024-01-15T08:22:18;24.48;;;9.25;;
30378;SDS011;17168;49.164;9.060;2024-01-15T08:24:50;28.08;;;10.00;;
30378;SDS011;17168;49.164;9.060;2024-01-15T08:27:27;26.77;;;9.70;;
30378;SDS011;17168;49.164;9.060;2024-01-15T08:30:00;25.35;;;9.63;;
30378;SDS011;17168;49.164;9.060;2024-01-15T08:32:35;24.02;;;9.35;;
30378;SDS011;17168;49.164;9.060;2024-01-15T08:35:12;23.25;;;10.57;;
30378;SDS011;17168;49.164;9.060;2024-01-15T08:37:45;24.92;;;10.27;;
30378;SDS011;17168;49.164;9.060;2024-01-15T08:40:20;28.90;;;12.98;;
30378;SDS011;17168;49.164;9.060;2024-01-15T08:43:00;26.77;;;11.10;;
30378;SDS011;17168;49.164;9.060;2024-01-15T08:45:36;26.33;;;10.50;;
30378;SDS011;17168;49.164;9.060;2024-01-15T08:48:16;25.35;;;9.45;;
30378;SDS011;17168;49.164;9.060;2024-01-15T08:50:49;24.80;;;10.35;;
30378;SDS011;17168;49.164;9.060;2024-01-15T08:53:29;21.90;;;9.57;;
30378;SDS011;17168;49.164;9.060;2024-01-15T08:56:07;23.45;;;9.20;;
30378;SDS011;17168;49.164;9.060;2024-01-15T08:58:43;25.50;;;10.02;;
30378;SDS011;17168;49.164;9.060;2024-01-15T09:01:17;23.40;;;9.73;;
30378;SDS011;17168;49.164;9.060;2024-01-15T09:03:53;25.00;;;9.82;;
30378;SDS011;17168;49.164;9.060;2024-01-15T09:06:26;23.38;;;9.23;;
30378;SDS011;17168;49.164;9.060;2024-01-15T09:08:58;27.98;;;11.15;;
30378;SDS011;17168;49.164;9.060;2024-01-15T09:11:31;23.42;;;9.70;;
30378;SDS011;17168;49.164;9.060;2024-01-15T09:14:04;24.15;;;9.98;;
30378;SDS011;17168;49.164;9.060;2024-01-15T09:16:36;27.20;;;9.48;;
30378;SDS011;17168;49.164;9.060;2024-01-15T09:19:14;26.58;;;10.23;;
30378;SDS011;17168;49.164;9.060;2024-01-15T09:21:46;25.10;;;9.82;;
30378;SDS011;17168;49.164;9.060;2024-01-15T09:24:19;26.48;;;9.20;;
30378;SDS011;17168;49.164;9.060;2024-01-15T09:26:59;19.50;;;8.43;;
30378;SDS011;17168;49.164;9.060;2024-01-15T09:29:31;21.52;;;9.00;;
30378;SDS011;17168;49.164;9.060;2024-01-15T09:32:05;22.23;;;8.63;;
30378;SDS011;17168;49.164;9.060;2024-01-15T09:34:43;22.95;;;9.30;;
30378;SDS011;17168;49.164;9.060;2024-01-15T09:37:16;18.25;;;8.38;;
30378;SDS011;17168;49.164;9.060;2024-01-15T09:40:13;23.38;;;9.00;;
30378;SDS011;17168;49.164;9.060;2024-01-15T09:42:47;18.35;;;7.88;;
30378;SDS011;17168;49.164;9.060;2024-01-15T09:45:22;19.95;;;7.82;;
30378;SDS011;17168;49.164;9.060;2024-01-15T09:47:54;16.05;;;6.88;;
30378;SDS011;17168;49.164;9.060;2024-01-15T09:50:30;16.48;;;7.05;;
30378;SDS011;17168;49.164;9.060;2024-01-15T09:53:02;17.80;;;7.60;;
30378;SDS011;17168;49.164;9.060;2024-01-15T09:55:38;19.33;;;8.43;;
30378;SDS011;17168;49.164;9.060;2024-01-15T09:58:13;18.17;;;8.00;;
30378;SDS011;17168;49.164;9.060;2024-01-15T10:00:46;16.10;;;6.65;;
30378;SDS011;17168;49.164;9.060;2024-01-15T10:03:21;18.67;;;6.53;;
30378;SDS011;17168;49.164;9.060;2024-01-15T10:05:57;21.48;;;8.20;;
30378;SDS011;17168;49.164;9.060;2024-01-15T10:08:31;18.08;;;7.57;;
30378;SDS011;17168;49.164;9.060;2024-01-15T10:11:05;21.88;;;8.32;;
30378;SDS011;17168;49.164;9.060;2024-01-15T10:13:42;20.38;;;7.97;;
30378;SDS011;17168;49.164;9.060;2024-01-15T10:16:17;17.33;;;7.70;;
30378;SDS011;17168;49.164;9.060;2024-01-15T10:18:52;22.63;;;8.77;;
30378;SDS011;17168;49.164;9.060;2024-01-15T10:21:27;23.63;;;8.68;;
30378;SDS011;17168;49.164;9.060;2024-01-15T10:24:00;18.98;;;7.57;;
30378;SDS011;17168;49.164;9.060;2024-01-15T10:26:35;20.60;;;8.38;;
30378;SDS011;17168;49.164;9.060;2024-01-15T10:29:08;23.10;;;8.63;;
30378;SDS011;17168;49.164;9.060;2024-01-15T10:31:47;21.05;;;8.73;;
30378;SDS011;17168;49.164;9.060;2024-01-15T10:34:30;19.52;;;8.73;;
30378;SDS011;17168;49.164;9.060;2024-01-15T10:37:18;20.90;;;7.82;;
30378;SDS011;17168;49.164;9.060;2024-01-15T10:40:01;19.38;;;8.20;;
30378;SDS011;17168;49.164;9.060;2024-01-15T10:42:40;21.02;;;8.32;;
30378;SDS011;17168;49.164;9.060;2024-01-15T10:45:17;23.40;;;8.20;;
30378;SDS011;17168;49.164;9.060;2024-01-15T10:47:50;19.55;;;8.07;;
30378;SDS011;17168;49.164;9.060;2024-01-15T10:50:23;19.52;;;8.50;;
30378;SDS011;17168;49.164;9.060;2024-01-15T10:52:58;17.05;;;7.68;;
30378;SDS011;17168;49.164;9.060;2024-01-15T10:55:31;18.83;;;7.00;;
30378;SDS011;17168;49.164;9.060;2024-01-15T11:01:12;22.67;;;9.15;;
30378;SDS011;17168;49.164;9.060;2024-01-15T11:03:47;22.27;;;8.80;;
30378;SDS011;17168;49.164;9.060;2024-01-15T11:06:20;24.00;;;9.20;;
30378;SDS011;17168;49.164;9.060;2024-01-15T11:08:58;24.60;;;9.40;;
30378;SDS011;17168;49.164;9.060;2024-01-15T11:11:31;21.45;;;8.65;;
30378;SDS011;17168;49.164;9.060;2024-01-15T11:14:07;23.65;;;8.68;;
30378;SDS011;17168;49.164;9.060;2024-01-15T11:16:55;28.35;;;10.32;;
30378;SDS011;17168;49.164;9.060;2024-01-15T11:19:35;23.23;;;9.40;;
30378;SDS011;17168;49.164;9.060;2024-01-15T11:22:11;22.77;;;10.75;;
30378;SDS011;17168;49.164;9.060;2024-01-15T11:25:20;23.90;;;10.63;;
30378;SDS011;17168;49.164;9.060;2024-01-15T11:27:55;24.58;;;9.40;;
30378;SDS011;17168;49.164;9.060;2024-01-15T11:30:28;23.55;;;9.50;;
30378;SDS011;17168;49.164;9.060;2024-01-15T11:33:00;22.40;;;9.57;;
30378;SDS011;17168;49.164;9.060;2024-01-15T11:38:28;22.52;;;9.15;;
30378;SDS011;17168;49.164;9.060;2024-01-15T11:41:03;25.55;;;10.23;;
30378;SDS011;17168;49.164;9.060;2024-01-15T11:43:47;25.35;;;10.25;;
30378;SDS011;17168;49.164;9.060;2024-01-15T11:46:19;24.20;;;10.48;;
30378;SDS011;17168;49.164;9.060;2024-01-15T11:48:51;22.58;;;9.32;;
30378;SDS011;17168;49.164;9.060;2024-01-15T11:51:35;29.65;;;10.98;;
30378;SDS011;17168;49.164;9.060;2024-01-15T11:54:08;22.25;;;9.63;;
30378;SDS011;17168;49.164;9.060;2024-01-15T11:56:46;24.70;;;9.18;;
30378;SDS011;17168;49.164;9.060;2024-01-15T11:59:21;28.90;;;9.77;;
30378;SDS011;17168;49.164;9.060;2024-01-15T12:01:54;25.70;;;10.52;;
30378;SDS011;17168;49.164;9.060;2024-01-15T12:04:26;25.38;;;9.75;;
30378;SDS011;17168;49.164;9.060;2024-01-15T12:06:58;26.00;;;10.02;;
30378;SDS011;17168;49.164;9.060;2024-01-15T12:09:31;25.67;;;8.98;;
30378;SDS011;17168;49.164;9.060;2024-01-15T12:12:07;23.52;;;8.98;;
30378;SDS011;17168;49.164;9.060;2024-01-15T12:14:45;22.00;;;8.18;;
30378;SDS011;17168;49.164;9.060;2024-01-15T12:17:17;24.65;;;9.38;;
30378;SDS011;17168;49.164;9.060;2024-01-15T12:19:50;17.92;;;8.23;;
30378;SDS011;17168;49.164;9.060;2024-01-15T12:22:22;21.02;;;8.95;;
30378;SDS011;17168;49.164;9.060;2024-01-15T12:24:55;22.52;;;8.60;;
30378;SDS011;17168;49.164;9.060;2024-01-15T12:27:32;23.75;;;8.23;;
30378;SDS011;17168;49.164;9.060;2024-01-15T12:30:05;20.40;;;8.10;;
30378;SDS011;17168;49.164;9.060;2024-01-15T12:32:39;21.52;;;8.60;;
30378;SDS011;17168;49.164;9.060;2024-01-15T12:35:13;23.95;;;9.95;;
30378;SDS011;17168;49.164;9.060;2024-01-15T12:37:47;19.92;;;9.50;;
30378;SDS011;17168;49.164;9.060;2024-01-15T12:40:19;20.98;;;8.73;;
30378;SDS011;17168;49.164;9.060;2024-01-15T12:42:59;21.73;;;8.80;;
30378;SDS011;17168;49.164;9.060;2024-01-15T12:45:32;22.70;;;10.25;;
30378;SDS011;17168;49.164;9.060;2024-01-15T12:48:07;21.02;;;9.27;;
30378;SDS011;17168;49.164;9.060;2024-01-15T12:50:42;18.48;;;8.57;;
30378;SDS011;17168;49.164;9.060;2024-01-15T12:53:15;20.13;;;9.15;;
30378;SDS011;17168;49.164;9.060;2024-01-15T12:55:49;22.20;;;8.30;;
30378;SDS011;17168;49.164;9.060;2024-01-15T12:58:24;22.52;;;8.52;;
30378;SDS011;17168;49.164;9.060;2024-01-15T13:00:56;23.40;;;9.02;;
30378;SDS011;17168;49.164;9.060;2024-01-15T13:03:29;20.17;;;8.50;;
30378;SDS011;17168;49.164;9.060;2024-01-15T13:06:02;20.00;;;8.90;;
30378;SDS011;17168;49.164;9.060;2024-01-15T13:08:37;20.17;;;7.90;;
30378;SDS011;17168;49.164;9.060;2024-01-15T13:11:09;19.83;;;8.90;;
30378;SDS011;17168;49.164;9.060;2024-01-15T13:13:44;25.20;;;8.77;;
30378;SDS011;17168;49.164;9.060;2024-01-15T13:16:16;19.55;;;8.52;;
30378;SDS011;17168;49.164;9.060;2024-01-15T13:18:49;21.25;;;9.00;;
30378;SDS011;17168;49.164;9.060;2024-01-15T13:21:21;22.95;;;8.32;;
30378;SDS011;17168;49.164;9.060;2024-01-15T13:23:54;19.08;;;8.73;;
30378;SDS011;17168;49.164;9.060;2024-01-15T13:26:26;17.63;;;8.68;;
30378;SDS011;17168;49.164;9.060;2024-01-15T13:29:02;20.88;;;8.85;;
30378;SDS011;17168;49.164;9.060;2024-01-15T13:31:35;20.77;;;9.20;;
30378;SDS011;17168;49.164;9.060;2024-01-15T13:34:07;22.02;;;8.73;;
30378;SDS011;17168;49.164;9.060;2024-01-15T13:36:40;22.67;;;9.02;;
30378;SDS011;17168;49.164;9.060;2024-01-15T13:39:13;22.90;;;9.63;;
30378;SDS011;17168;49.164;9.060;2024-01-15T13:41:48;21.88;;;9.52;;
30378;SDS011;17168;49.164;9.060;2024-01-15T13:44:23;16.85;;;8.48;;
30378;SDS011;17168;49.164;9.060;2024-01-15T13:46:56;18.10;;;7.93;;
30378;SDS011;17168;49.164;9.060;2024-01-15T13:49:29;16.23;;;8.38;;
30378;SDS011;17168;49.164;9.060;2024-01-15T13:52:01;17.33;;;8.23;;
30378;SDS011;17168;49.164;9.060;2024-01-15T13:54:35;19.80;;;8.68;;
30378;SDS011;17168;49.164;9.060;2024-01-15T13:57:20;13.63;;;6.75;;
30378;SDS011;17168;49.164;9.060;2024-01-15T13:59:56;19.27;;;8.18;;
30378;SDS011;17168;49.164;9.060;2024-01-15T14:02:31;14.95;;;7.68;;
30378;SDS011;17168;49.164;9.060;2024-01-15T14:05:03;16.10;;;7.80;;
30378;SDS011;17168;49.164;9.060;2024-01-15T14:07:36;16.23;;;9.13;;
30378;SDS011;17168;49.164;9.060;2024-01-15T14:10:10;16.63;;;8.02;;
30378;SDS011;17168;49.164;9.060;2024-01-15T14:12:54;20.75;;;8.27;;
30378;SDS011;17168;49.164;9.060;2024-01-15T14:15:32;19.55;;;9.80;;
30378;SDS011;17168;49.164;9.060;2024-01-15T14:18:05;18.38;;;7.57;;
30378;SDS011;17168;49.164;9.060;2024-01-15T14:20:38;16.25;;;8.02;;
30378;SDS011;17168;49.164;9.060;2024-01-15T14:23:10;17.27;;;7.80;;
30378;SDS011;17168;49.164;9.060;2024-01-15T14:25:43;16.23;;;7.32;;
30378;SDS011;17168;49.164;9.060;2024-01-15T14:28:15;18.05;;;7.35;;
30378;SDS011;17168;49.164;9.060;2024-01-15T14:30:50;15.50;;;7.95;;
30378;SDS011;17168;49.164;9.060;2024-01-15T14:33:23;16.08;;;8.40;;
30378;SDS011;17168;49.164;9.060;2024-01-15T14:35:57;16.88;;;8.27;;
30378;SDS011;17168;49.164;9.060;2024-01-15T14:38:29;15.50;;;7.80;;
30378;SDS011;17168;49.164;9.060;2024-01-15T14:41:01;17.40;;;7.57;;
30378;SDS011;17168;49.164;9.060;2024-01-15T14:43:33;16.30;;;7.78;;
30378;SDS011;17168;49.164;9.060;2024-01-15T14:46:08;18.60;;;7.93;;
30378;SDS011;17168;49.164;9.060;2024-01-15T14:48:41;20.33;;;8.60;;
30378;SDS011;17168;49.164;9.060;2024-01-15T14:51:14;16.40;;;7.65;;
30378;SDS011;17168;49.164;9.060;2024-01-15T14:53:46;18.55;;;8.55;;
30378;SDS011;17168;49.164;9.060;2024-01-15T14:56:18;19.33;;;8.20;;
30378;SDS011;17168;49.164;9.060;2024-01-15T14:58:51;15.90;;;8.02;;
30378;SDS011;17168;49.164;9.060;2024-01-15T15:01:26;13.68;;;6.43;;
30378;SDS011;17168;49.164;9.060;2024-01-15T15:03:59;14.88;;;6.75;;
30378;SDS011;17168;49.164;9.060;2024-01-15T15:06:31;16.98;;;6.70;;
30378;SDS011;17168;49.164;9.060;2024-01-15T15:09:04;16.98;;;7.90;;
30378;SDS011;17168;49.164;9.060;2024-01-15T15:11:41;13.93;;;6.32;;
30378;SDS011;17168;49.164;9.060;2024-01-15T15:14:13;13.88;;;6.50;;
30378;SDS011;17168;49.164;9.060;2024-01-15T15:16:48;15.68;;;7.32;;
30378;SDS011;17168;49.164;9.060;2024-01-15T15:19:20;14.85;;;6.70;;
30378;SDS011;17168;49.164;9.060;2024-01-15T15:21:53;15.57;;;6.45;;
30378;SDS011;17168;49.164;9.060;2024-01-15T15:24:26;12.30;;;5.50;;
30378;SDS011;17168;49.164;9.060;2024-01-15T15:26:58;14.80;;;6.43;;
30378;SDS011;17168;49.164;9.060;2024-01-15T15:29:32;13.43;;;6.20;;
30378;SDS011;17168;49.164;9.060;2024-01-15T15:32:09;15.10;;;7.22;;
30378;SDS011;17168;49.164;9.060;2024-01-15T15:34:42;12.18;;;5.82;;
30378;SDS011;17168;49.164;9.060;2024-01-15T15:37:17;14.57;;;6.68;;
30378;SDS011;17168;49.164;9.060;2024-01-15T15:39:49;12.20;;;5.90;;
30378;SDS011;17168;49.164;9.060;2024-01-15T15:42:21;13.00;;;6.13;;
30378;SDS011;17168;49.164;9.060;2024-01-15T15:44:55;12.82;;;6.80;;
30378;SDS011;17168;49.164;9.060;2024-01-15T15:47:34;14.65;;;6.70;;
30378;SDS011;17168;49.164;9.060;2024-01-15T15:50:07;11.43;;;5.28;;
30378;SDS011;17168;49.164;9.060;2024-01-15T15:52:40;13.35;;;5.90;;
30378;SDS011;17168;49.164;9.060;2024-01-15T15:55:12;13.80;;;5.90;;
30378;SDS011;17168;49.164;9.060;2024-01-15T15:57:44;12.20;;;6.07;;
30378;SDS011;17168;49.164;9.060;2024-01-15T16:00:17;14.70;;;6.20;;